sensor_id;sensor_type;location;lat;lon;timestamp;P1;durP1;ratioP1;P2;durP2;ratioP2
14945;SDS011;7567;50.916;6.900;2022-08-01T00:02:27;3.00;;;1.33;;
14945;SDS011;7567;50.916;6.900;2022-08-01T00:04:54;2.10;;;1.38;;
14945;SDS011;7567;50.916;6.900;2022-08-01T00:07:23;2.40;;;1.25;;
14945;SDS011;7567;50.916;6.900;2022-08-01T00:09:52;2.17;;;1.38;;
14945;SDS011;7567;50.916;6.900;2022-08-01T00:12:22;2.33;;;1.40;;
14945;SDS011;7567;50.916;6.900;2022-08-01T00:14:51;6.07;;;1.70;;
14945;SDS011;7567;50.916;6.900;2022-08-01T00:17:20;4.25;;;1.48;;
14945;SDS011;7567;50.916;6.900;2022-08-01T00:19:48;2.28;;;1.35;;
14945;SDS011;7567;50.916;6.900;2022-08-01T00:22:17;2.30;;;1.52;;
14945;SDS011;7567;50.916;6.900;2022-08-01T00:24:45;4.03;;;1.50;;
14945;SDS011;7567;50.916;6.900;2022-08-01T00:27:13;3.30;;;1.63;;
14945;SDS011;7567;50.916;6.900;2022-08-01T00:29:46;4.28;;;1.58;;
14945;SDS011;7567;50.916;6.900;2022-08-01T00:32:23;2.33;;;1.60;;
14945;SDS011;7567;50.916;6.900;2022-08-01T00:35:02;2.33;;;1.75;;
14945;SDS011;7567;50.916;6.900;2022-08-01T00:37:38;3.85;;;1.30;;
14945;SDS011;7567;50.916;6.900;2022-08-01T00:40:09;3.05;;;1.35;;
14945;SDS011;7567;50.916;6.900;2022-08-01T00:42:41;2.10;;;1.50;;
14945;SDS011;7567;50.916;6.900;2022-08-01T00:45:15;2.35;;;1.35;;
14945;SDS011;7567;50.916;6.900;2022-08-01T00:47:47;3.40;;;1.55;;
14945;SDS011;7567;50.916;6.900;2022-08-01T00:50:30;3.10;;;1.80;;
14945;SDS011;7567;50.916;6.900;2022-08-01T00:53:03;2.17;;;1.55;;
14945;SDS011;7567;50.916;6.900;2022-08-01T00:55:35;4.75;;;1.65;;
14945;SDS011;7567;50.916;6.900;2022-08-01T00:58:07;2.35;;;1.88;;
14945;SDS011;7567;50.916;6.900;2022-08-01T01:00:43;4.47;;;1.48;;
14945;SDS011;7567;50.916;6.900;2022-08-01T01:03:18;2.13;;;1.52;;
14945;SDS011;7567;50.916;6.900;2022-08-01T01:06:01;3.17;;;1.63;;
14945;SDS011;7567;50.916;6.900;2022-08-01T01:11:44;2.00;;;1.80;;
14945;SDS011;7567;50.916;6.900;2022-08-01T01:14:33;2.45;;;1.58;;
14945;SDS011;7567;50.916;6.900;2022-08-01T01:30:18;2.38;;;1.83;;
14945;SDS011;7567;50.916;6.900;2022-08-01T01:32:46;2.75;;;1.92;;
14945;SDS011;7567;50.916;6.900;2022-08-01T01:35:16;2.67;;;1.80;;
14945;SDS011;7567;50.916;6.900;2022-08-01T01:37:46;3.22;;;1.67;;
14945;SDS011;7567;50.916;6.900;2022-08-01T01:40:15;4.50;;;1.92;;
14945;SDS011;7567;50.916;6.900;2022-08-01T01:42:42;2.28;;;2.00;;
14945;SDS011;7567;50.916;6.900;2022-08-01T01:45:09;4.63;;;1.90;;
14945;SDS011;7567;50.916;6.900;2022-08-01T01:47:36;2.22;;;1.67;;
14945;SDS011;7567;50.916;6.900;2022-08-01T01:50:04;5.20;;;1.80;;
14945;SDS011;7567;50.916;6.900;2022-08-01T01:52:33;3.50;;;2.28;;
14945;SDS011;7567;50.916;6.900;2022-08-01T01:55:00;4.07;;;2.08;;
14945;SDS011;7567;50.916;6.900;2022-08-01T01:57:30;3.03;;;1.92;;
14945;SDS011;7567;50.916;6.900;2022-08-01T02:00:00;1.98;;;1.77;;
14945;SDS011;7567;50.916;6.900;2022-08-01T02:02:27;2.33;;;2.00;;
14945;SDS011;7567;50.916;6.900;2022-08-01T02:04:53;3.22;;;2.40;;
14945;SDS011;7567;50.916;6.900;2022-08-01T02:07:32;2.50;;;2.00;;
14945;SDS011;7567;50.916;6.900;2022-08-01T02:10:00;3.10;;;2.10;;
14945;SDS011;7567;50.916;6.900;2022-08-01T02:12:28;2.55;;;2.10;;
14945;SDS011;7567;50.916;6.900;2022-08-01T02:14:57;3.80;;;1.77;;
14945;SDS011;7567;50.916;6.900;2022-08-01T02:17:25;2.20;;;1.90;;
14945;SDS011;7567;50.916;6.900;2022-08-01T02:19:53;4.85;;;2.30;;
14945;SDS011;7567;50.916;6.900;2022-08-01T02:22:21;3.53;;;1.85;;
14945;SDS011;7567;50.916;6.900;2022-08-01T02:25:15;3.83;;;2.33;;
14945;SDS011;7567;50.916;6.900;2022-08-01T02:27:48;7.93;;;2.63;;
14945;SDS011;7567;50.916;6.900;2022-08-01T02:30:37;2.75;;;1.75;;
14945;SDS011;7567;50.916;6.900;2022-08-01T02:33:06;4.15;;;2.15;;
14945;SDS011;7567;50.916;6.900;2022-08-01T02:35:40;4.38;;;2.20;;
14945;SDS011;7567;50.916;6.900;2022-08-01T02:38:09;2.40;;;1.88;;
14945;SDS011;7567;50.916;6.900;2022-08-01T02:40:37;2.92;;;2.00;;
14945;SDS011;7567;50.916;6.900;2022-08-01T02:43:06;4.72;;;2.00;;
14945;SDS011;7567;50.916;6.900;2022-08-01T02:45:37;4.30;;;2.35;;
14945;SDS011;7567;50.916;6.900;2022-08-01T02:48:11;4.53;;;2.38;;
14945;SDS011;7567;50.916;6.900;2022-08-01T02:50:40;3.80;;;2.15;;
14945;SDS011;7567;50.916;6.900;2022-08-01T02:53:09;4.60;;;2.28;;
14945;SDS011;7567;50.916;6.900;2022-08-01T02:55:40;4.82;;;2.50;;
14945;SDS011;7567;50.916;6.900;2022-08-01T02:58:10;3.15;;;2.58;;
14945;SDS011;7567;50.916;6.900;2022-08-01T03:00:39;4.38;;;2.38;;
14945;SDS011;7567;50.916;6.900;2022-08-01T03:03:08;4.05;;;2.38;;
14945;SDS011;7567;50.916;6.900;2022-08-01T03:05:36;3.17;;;2.20;;
14945;SDS011;7567;50.916;6.900;2022-08-01T03:08:05;3.95;;;2.60;;
14945;SDS011;7567;50.916;6.900;2022-08-01T03:10:33;6.05;;;2.90;;
14945;SDS011;7567;50.916;6.900;2022-08-01T03:13:03;3.45;;;3.00;;
14945;SDS011;7567;50.916;6.900;2022-08-01T03:15:32;2.88;;;2.45;;
14945;SDS011;7567;50.916;6.900;2022-08-01T03:18:00;3.72;;;2.20;;
14945;SDS011;7567;50.916;6.900;2022-08-01T03:20:29;3.08;;;2.38;;
14945;SDS011;7567;50.916;6.900;2022-08-01T03:22:57;3.63;;;2.90;;
14945;SDS011;7567;50.916;6.900;2022-08-01T03:25:26;3.38;;;3.08;;
14945;SDS011;7567;50.916;6.900;2022-08-01T03:27:55;5.50;;;2.92;;
14945;SDS011;7567;50.916;6.900;2022-08-01T03:30:24;4.28;;;2.70;;
14945;SDS011;7567;50.916;6.900;2022-08-01T03:32:52;3.40;;;3.10;;
14945;SDS011;7567;50.916;6.900;2022-08-01T03:35:18;3.53;;;2.70;;
14945;SDS011;7567;50.916;6.900;2022-08-01T03:37:46;3.85;;;3.10;;
14945;SDS011;7567;50.916;6.900;2022-08-01T03:40:23;3.38;;;3.08;;
14945;SDS011;7567;50.916;6.900;2022-08-01T03:43:16;5.97;;;2.85;;
14945;SDS011;7567;50.916;6.900;2022-08-01T03:45:48;3.85;;;3.30;;
14945;SDS011;7567;50.916;6.900;2022-08-01T03:48:17;6.03;;;2.70;;
14945;SDS011;7567;50.916;6.900;2022-08-01T03:50:51;3.72;;;3.40;;
14945;SDS011;7567;50.916;6.900;2022-08-01T03:53:23;4.13;;;3.50;;
14945;SDS011;7567;50.916;6.900;2022-08-01T03:55:53;6.30;;;3.35;;
14945;SDS011;7567;50.916;6.900;2022-08-01T03:58:21;5.32;;;3.63;;
14945;SDS011;7567;50.916;6.900;2022-08-01T04:00:47;6.05;;;4.10;;
14945;SDS011;7567;50.916;6.900;2022-08-01T04:03:14;7.30;;;4.03;;
14945;SDS011;7567;50.916;6.900;2022-08-01T04:05:41;7.18;;;4.45;;
14945;SDS011;7567;50.916;6.900;2022-08-01T04:08:07;7.55;;;4.80;;
14945;SDS011;7567;50.916;6.900;2022-08-01T04:10:33;4.75;;;4.03;;
14945;SDS011;7567;50.916;6.900;2022-08-01T04:13:00;6.45;;;4.57;;
14945;SDS011;7567;50.916;6.900;2022-08-01T04:15:26;6.30;;;4.55;;
14945;SDS011;7567;50.916;6.900;2022-08-01T04:17:52;6.25;;;4.28;;
14945;SDS011;7567;50.916;6.900;2022-08-01T04:20:19;6.00;;;4.43;;
14945;SDS011;7567;50.916;6.900;2022-08-01T04:22:45;7.25;;;5.03;;
14945;SDS011;7567;50.916;6.900;2022-08-01T04:25:12;6.40;;;5.15;;
14945;SDS011;7567;50.916;6.900;2022-08-01T04:27:50;6.85;;;4.78;;
14945;SDS011;7567;50.916;6.900;2022-08-01T04:30:19;5.68;;;4.55;;
14945;SDS011;7567;50.916;6.900;2022-08-01T04:32:55;9.55;;;4.50;;
14945;SDS011;7567;50.916;6.900;2022-08-01T04:35:24;7.00;;;4.30;;
14945;SDS011;7567;50.916;6.900;2022-08-01T04:37:51;5.18;;;4.30;;
14945;SDS011;7567;50.916;6.900;2022-08-01T04:40:18;7.30;;;5.57;;
14945;SDS011;7567;50.916;6.900;2022-08-01T04:42:49;9.55;;;5.25;;
14945;SDS011;7567;50.916;6.900;2022-08-01T04:45:16;8.35;;;4.53;;
14945;SDS011;7567;50.916;6.900;2022-08-01T04:47:42;5.55;;;4.78;;
14945;SDS011;7567;50.916;6.900;2022-08-01T04:50:09;6.93;;;5.15;;
14945;SDS011;7567;50.916;6.900;2022-08-01T04:52:37;10.55;;;6.30;;
14945;SDS011;7567;50.916;6.900;2022-08-01T04:55:04;7.30;;;5.63;;
14945;SDS011;7567;50.916;6.900;2022-08-01T04:57:46;7.65;;;6.85;;
14945;SDS011;7567;50.916;6.900;2022-08-01T05:00:12;8.30;;;6.32;;
14945;SDS011;7567;50.916;6.900;2022-08-01T05:02:39;8.70;;;6.93;;
14945;SDS011;7567;50.916;6.900;2022-08-01T05:05:05;7.55;;;6.63;;
14945;SDS011;7567;50.916;6.900;2022-08-01T05:07:32;7.40;;;5.88;;
14945;SDS011;7567;50.916;6.900;2022-08-01T05:09:58;10.80;;;7.40;;
14945;SDS011;7567;50.916;6.900;2022-08-01T05:12:26;9.68;;;6.70;;
14945;SDS011;7567;50.916;6.900;2022-08-01T05:14:52;7.55;;;6.43;;
14945;SDS011;7567;50.916;6.900;2022-08-01T05:17:18;7.50;;;6.32;;
14945;SDS011;7567;50.916;6.900;2022-08-01T05:19:44;11.23;;;6.95;;
14945;SDS011;7567;50.916;6.900;2022-08-01T05:22:10;9.35;;;6.53;;
14945;SDS011;7567;50.916;6.900;2022-08-01T05:24:37;9.85;;;5.72;;
14945;SDS011;7567;50.916;6.900;2022-08-01T05:27:04;8.52;;;6.70;;
14945;SDS011;7567;50.916;6.900;2022-08-01T05:29:31;14.30;;;7.68;;
14945;SDS011;7567;50.916;6.900;2022-08-01T05:31:57;12.63;;;6.90;;
14945;SDS011;7567;50.916;6.900;2022-08-01T05:34:24;11.13;;;8.52;;
14945;SDS011;7567;50.916;6.900;2022-08-01T05:36:50;10.25;;;9.02;;
14945;SDS011;7567;50.916;6.900;2022-08-01T05:39:16;14.00;;;9.05;;
14945;SDS011;7567;50.916;6.900;2022-08-01T05:41:42;10.23;;;8.90;;
14945;SDS011;7567;50.916;6.900;2022-08-01T05:44:08;11.75;;;8.95;;
14945;SDS011;7567;50.916;6.900;2022-08-01T05:46:35;12.73;;;9.52;;
14945;SDS011;7567;50.916;6.900;2022-08-01T05:49:02;11.55;;;8.68;;
14945;SDS011;7567;50.916;6.900;2022-08-01T05:51:29;11.18;;;8.90;;
14945;SDS011;7567;50.916;6.900;2022-08-01T05:53:56;10.30;;;9.23;;
14945;SDS011;7567;50.916;6.900;2022-08-01T05:56:22;13.27;;;10.50;;
14945;SDS011;7567;50.916;6.900;2022-08-01T05:58:49;13.45;;;10.13;;
14945;SDS011;7567;50.916;6.900;2022-08-01T06:01:16;13.98;;;9.55;;
14945;SDS011;7567;50.916;6.900;2022-08-01T06:03:43;11.30;;;8.68;;
14945;SDS011;7567;50.916;6.900;2022-08-01T06:06:09;12.50;;;9.30;;
14945;SDS011;7567;50.916;6.900;2022-08-01T06:08:35;11.93;;;9.15;;
14945;SDS011;7567;50.916;6.900;2022-08-01T06:11:01;15.93;;;9.95;;
14945;SDS011;7567;50.916;6.900;2022-08-01T06:13:28;14.18;;;11.82;;
14945;SDS011;7567;50.916;6.900;2022-08-01T06:15:54;13.18;;;10.50;;
14945;SDS011;7567;50.916;6.900;2022-08-01T06:18:20;12.90;;;10.80;;
14945;SDS011;7567;50.916;6.900;2022-08-01T06:20:46;14.90;;;10.10;;
14945;SDS011;7567;50.916;6.900;2022-08-01T06:23:12;12.32;;;8.80;;
14945;SDS011;7567;50.916;6.900;2022-08-01T06:25:41;11.32;;;9.45;;
14945;SDS011;7567;50.916;6.900;2022-08-01T06:28:07;10.52;;;8.38;;
14945;SDS011;7567;50.916;6.900;2022-08-01T06:30:33;10.40;;;9.30;;
14945;SDS011;7567;50.916;6.900;2022-08-01T06:32:59;11.00;;;9.77;;
14945;SDS011;7567;50.916;6.900;2022-08-01T06:35:26;12.35;;;8.52;;
14945;SDS011;7567;50.916;6.900;2022-08-01T06:37:55;11.77;;;9.75;;
14945;SDS011;7567;50.916;6.900;2022-08-01T06:40:21;11.05;;;8.57;;
14945;SDS011;7567;50.916;6.900;2022-08-01T06:42:47;11.93;;;8.45;;
14945;SDS011;7567;50.916;6.900;2022-08-01T06:45:14;10.65;;;9.10;;
14945;SDS011;7567;50.916;6.900;2022-08-01T06:47:41;9.02;;;8.13;;
14945;SDS011;7567;50.916;6.900;2022-08-01T06:50:09;9.93;;;8.05;;
14945;SDS011;7567;50.916;6.900;2022-08-01T06:52:35;10.57;;;7.75;;
14945;SDS011;7567;50.916;6.900;2022-08-01T06:55:02;12.63;;;8.32;;
14945;SDS011;7567;50.916;6.900;2022-08-01T06:57:28;11.60;;;7.93;;
14945;SDS011;7567;50.916;6.900;2022-08-01T06:59:55;8.40;;;7.38;;
14945;SDS011;7567;50.916;6.900;2022-08-01T07:02:21;10.50;;;7.82;;
14945;SDS011;7567;50.916;6.900;2022-08-01T07:04:48;10.70;;;8.68;;
14945;SDS011;7567;50.916;6.900;2022-08-01T07:07:13;9.48;;;8.55;;
14945;SDS011;7567;50.916;6.900;2022-08-01T07:09:39;10.55;;;8.18;;
14945;SDS011;7567;50.916;6.900;2022-08-01T07:12:07;9.00;;;8.10;;
14945;SDS011;7567;50.916;6.900;2022-08-01T07:14:33;9.73;;;7.30;;
14945;SDS011;7567;50.916;6.900;2022-08-01T07:17:00;11.13;;;8.35;;
14945;SDS011;7567;50.916;6.900;2022-08-01T07:19:26;11.10;;;7.80;;
14945;SDS011;7567;50.916;6.900;2022-08-01T07:21:52;8.60;;;7.50;;
14945;SDS011;7567;50.916;6.900;2022-08-01T07:24:18;9.48;;;7.68;;
14945;SDS011;7567;50.916;6.900;2022-08-01T07:26:45;8.57;;;7.10;;
14945;SDS011;7567;50.916;6.900;2022-08-01T07:29:12;8.82;;;8.00;;
14945;SDS011;7567;50.916;6.900;2022-08-01T07:31:39;9.05;;;7.90;;
14945;SDS011;7567;50.916;6.900;2022-08-01T07:34:04;9.05;;;7.03;;
14945;SDS011;7567;50.916;6.900;2022-08-01T07:36:30;8.60;;;7.43;;
14945;SDS011;7567;50.916;6.900;2022-08-01T07:38:56;10.15;;;8.98;;
14945;SDS011;7567;50.916;6.900;2022-08-01T07:41:23;7.70;;;7.00;;
14945;SDS011;7567;50.916;6.900;2022-08-01T07:43:49;8.60;;;7.50;;
14945;SDS011;7567;50.916;6.900;2022-08-01T07:46:15;10.52;;;7.78;;
14945;SDS011;7567;50.916;6.900;2022-08-01T07:48:42;10.45;;;7.55;;
14945;SDS011;7567;50.916;6.900;2022-08-01T07:51:08;9.30;;;7.13;;
14945;SDS011;7567;50.916;6.900;2022-08-01T07:53:35;9.15;;;7.05;;
14945;SDS011;7567;50.916;6.900;2022-08-01T07:56:02;9.52;;;7.93;;
14945;SDS011;7567;50.916;6.900;2022-08-01T07:58:30;8.05;;;7.22;;
14945;SDS011;7567;50.916;6.900;2022-08-01T08:00:55;7.57;;;6.97;;
14945;SDS011;7567;50.916;6.900;2022-08-01T08:03:22;10.63;;;6.82;;
14945;SDS011;7567;50.916;6.900;2022-08-01T08:06:13;9.93;;;6.85;;
14945;SDS011;7567;50.916;6.900;2022-08-01T08:08:38;11.07;;;7.78;;
14945;SDS011;7567;50.916;6.900;2022-08-01T08:11:04;9.02;;;7.65;;
14945;SDS011;7567;50.916;6.900;2022-08-01T08:13:30;9.68;;;7.53;;
14945;SDS011;7567;50.916;6.900;2022-08-01T08:15:56;9.77;;;8.85;;
14945;SDS011;7567;50.916;6.900;2022-08-01T08:18:24;8.98;;;7.90;;
14945;SDS011;7567;50.916;6.900;2022-08-01T08:20:49;8.63;;;7.82;;
14945;SDS011;7567;50.916;6.900;2022-08-01T08:23:15;9.43;;;7.60;;
14945;SDS011;7567;50.916;6.900;2022-08-01T08:26:00;8.02;;;7.40;;
14945;SDS011;7567;50.916;6.900;2022-08-01T08:28:26;8.85;;;7.40;;
14945;SDS011;7567;50.916;6.900;2022-08-01T08:30:52;7.22;;;6.72;;
14945;SDS011;7567;50.916;6.900;2022-08-01T08:33:20;8.80;;;6.53;;
14945;SDS011;7567;50.916;6.900;2022-08-01T08:35:46;9.77;;;6.75;;
14945;SDS011;7567;50.916;6.900;2022-08-01T08:38:12;7.03;;;6.32;;
14945;SDS011;7567;50.916;6.900;2022-08-01T08:40:38;8.13;;;6.07;;
14945;SDS011;7567;50.916;6.900;2022-08-01T08:43:05;7.18;;;6.45;;
14945;SDS011;7567;50.916;6.900;2022-08-01T08:45:31;5.85;;;5.25;;
14945;SDS011;7567;50.916;6.900;2022-08-01T08:47:57;7.35;;;5.68;;
14945;SDS011;7567;50.916;6.900;2022-08-01T08:50:28;5.93;;;5.30;;
14945;SDS011;7567;50.916;6.900;2022-08-01T08:52:54;6.30;;;5.70;;
14945;SDS011;7567;50.916;6.900;2022-08-01T08:55:21;7.68;;;6.05;;
14945;SDS011;7567;50.916;6.900;2022-08-01T08:57:48;6.35;;;5.63;;
14945;SDS011;7567;50.916;6.900;2022-08-01T09:00:14;6.95;;;6.22;;
14945;SDS011;7567;50.916;6.900;2022-08-01T09:02:41;6.68;;;6.05;;
14945;SDS011;7567;50.916;6.900;2022-08-01T09:05:09;6.72;;;5.88;;
14945;SDS011;7567;50.916;6.900;2022-08-01T09:07:36;6.25;;;5.60;;
14945;SDS011;7567;50.916;6.900;2022-08-01T09:10:02;7.45;;;5.70;;
14945;SDS011;7567;50.916;6.900;2022-08-01T09:12:29;5.60;;;5.00;;
14945;SDS011;7567;50.916;6.900;2022-08-01T09:14:55;4.50;;;4.10;;
14945;SDS011;7567;50.916;6.900;2022-08-01T09:17:21;5.80;;;4.45;;
14945;SDS011;7567;50.916;6.900;2022-08-01T09:19:51;4.55;;;4.15;;
14945;SDS011;7567;50.916;6.900;2022-08-01T09:22:32;4.60;;;4.20;;
14945;SDS011;7567;50.916;6.900;2022-08-01T09:25:05;5.88;;;4.32;;
14945;SDS011;7567;50.916;6.900;2022-08-01T09:27:34;9.93;;;5.32;;
14945;SDS011;7567;50.916;6.900;2022-08-01T09:30:10;11.00;;;5.25;;
14945;SDS011;7567;50.916;6.900;2022-08-01T09:32:57;5.80;;;5.20;;
14945;SDS011;7567;50.916;6.900;2022-08-01T09:35:32;6.40;;;5.80;;
14945;SDS011;7567;50.916;6.900;2022-08-01T09:40:48;6.00;;;5.50;;
14945;SDS011;7567;50.916;6.900;2022-08-01T09:43:28;6.10;;;5.60;;
14945;SDS011;7567;50.916;6.900;2022-08-01T09:45:55;5.97;;;5.38;;
14945;SDS011;7567;50.916;6.900;2022-08-01T09:48:22;9.98;;;5.30;;
14945;SDS011;7567;50.916;6.900;2022-08-01T09:50:49;5.95;;;4.68;;
14945;SDS011;7567;50.916;6.900;2022-08-01T09:53:16;4.95;;;4.45;;
14945;SDS011;7567;50.916;6.900;2022-08-01T09:55:42;6.50;;;4.85;;
14945;SDS011;7567;50.916;6.900;2022-08-01T09:58:09;5.15;;;4.45;;
14945;SDS011;7567;50.916;6.900;2022-08-01T10:00:37;6.65;;;4.82;;
14945;SDS011;7567;50.916;6.900;2022-08-01T10:03:19;7.03;;;4.60;;
14945;SDS011;7567;50.916;6.900;2022-08-01T10:05:47;5.60;;;4.70;;
14945;SDS011;7567;50.916;6.900;2022-08-01T10:08:13;4.88;;;4.28;;
14945;SDS011;7567;50.916;6.900;2022-08-01T10:10:40;5.28;;;4.88;;
14945;SDS011;7567;50.916;6.900;2022-08-01T10:13:06;6.13;;;4.40;;
14945;SDS011;7567;50.916;6.900;2022-08-01T10:15:34;7.30;;;4.30;;
14945;SDS011;7567;50.916;6.900;2022-08-01T10:18:01;4.40;;;4.00;;
14945;SDS011;7567;50.916;6.900;2022-08-01T10:20:31;4.38;;;3.97;;
14945;SDS011;7567;50.916;6.900;2022-08-01T10:23:00;4.65;;;4.25;;
14945;SDS011;7567;50.916;6.900;2022-08-01T10:25:35;4.60;;;4.20;;
14945;SDS011;7567;50.916;6.900;2022-08-01T10:28:08;4.93;;;4.32;;
14945;SDS011;7567;50.916;6.900;2022-08-01T10:30:41;4.10;;;3.70;;
14945;SDS011;7567;50.916;6.900;2022-08-01T10:33:11;5.32;;;4.82;;
14945;SDS011;7567;50.916;6.900;2022-08-01T10:35:38;4.97;;;4.18;;
14945;SDS011;7567;50.916;6.900;2022-08-01T10:38:05;4.80;;;4.50;;
14945;SDS011;7567;50.916;6.900;2022-08-01T10:40:34;5.30;;;4.75;;
14945;SDS011;7567;50.916;6.900;2022-08-01T10:43:02;4.88;;;4.47;;
14945;SDS011;7567;50.916;6.900;2022-08-01T10:45:29;4.57;;;4.18;;
14945;SDS011;7567;50.916;6.900;2022-08-01T10:48:00;6.65;;;4.20;;
14945;SDS011;7567;50.916;6.900;2022-08-01T10:50:37;4.60;;;4.20;;
14945;SDS011;7567;50.916;6.900;2022-08-01T10:53:17;4.63;;;4.05;;
14945;SDS011;7567;50.916;6.900;2022-08-01T10:58:26;6.05;;;4.60;;
14945;SDS011;7567;50.916;6.900;2022-08-01T11:06:23;4.70;;;4.22;;
14945;SDS011;7567;50.916;6.900;2022-08-01T11:08:53;5.07;;;3.97;;
14945;SDS011;7567;50.916;6.900;2022-08-01T11:11:19;6.28;;;3.67;;
14945;SDS011;7567;50.916;6.900;2022-08-01T11:14:04;5.90;;;3.50;;
14945;SDS011;7567;50.916;6.900;2022-08-01T11:16:38;4.20;;;3.80;;
14945;SDS011;7567;50.916;6.900;2022-08-01T11:19:06;5.88;;;3.80;;
14945;SDS011;7567;50.916;6.900;2022-08-01T11:27:20;6.22;;;3.65;;
14945;SDS011;7567;50.916;6.900;2022-08-01T11:35:18;4.80;;;3.83;;
14945;SDS011;7567;50.916;6.900;2022-08-01T11:37:46;3.90;;;3.50;;
14945;SDS011;7567;50.916;6.900;2022-08-01T11:40:16;3.38;;;2.90;;
14945;SDS011;7567;50.916;6.900;2022-08-01T11:42:49;4.68;;;2.90;;
14945;SDS011;7567;50.916;6.900;2022-08-01T11:45:16;3.53;;;3.22;;
14945;SDS011;7567;50.916;6.900;2022-08-01T11:47:43;3.55;;;3.25;;
14945;SDS011;7567;50.916;6.900;2022-08-01T11:52:58;4.05;;;3.65;;
14945;SDS011;7567;50.916;6.900;2022-08-01T11:55:27;4.13;;;3.33;;
14945;SDS011;7567;50.916;6.900;2022-08-01T12:00:49;3.92;;;3.50;;
14945;SDS011;7567;50.916;6.900;2022-08-01T12:03:16;3.28;;;3.08;;
14945;SDS011;7567;50.916;6.900;2022-08-01T12:05:48;4.38;;;3.00;;
14945;SDS011;7567;50.916;6.900;2022-08-01T12:08:14;3.10;;;2.80;;
14945;SDS011;7567;50.916;6.900;2022-08-01T12:10:57;2.55;;;2.40;;
14945;SDS011;7567;50.916;6.900;2022-08-01T12:13:25;3.13;;;2.53;;
14945;SDS011;7567;50.916;6.900;2022-08-01T12:15:52;2.58;;;2.38;;
14945;SDS011;7567;50.916;6.900;2022-08-01T12:18:19;2.40;;;2.22;;
14945;SDS011;7567;50.916;6.900;2022-08-01T12:20:45;3.58;;;2.83;;
14945;SDS011;7567;50.916;6.900;2022-08-01T12:23:12;5.25;;;2.92;;
14945;SDS011;7567;50.916;6.900;2022-08-01T12:25:39;4.30;;;2.80;;
14945;SDS011;7567;50.916;6.900;2022-08-01T12:28:07;6.30;;;2.92;;
14945;SDS011;7567;50.916;6.900;2022-08-01T12:30:34;3.25;;;2.97;;
14945;SDS011;7567;50.916;6.900;2022-08-01T12:33:02;2.60;;;2.40;;
14945;SDS011;7567;50.916;6.900;2022-08-01T12:35:30;4.00;;;2.60;;
14945;SDS011;7567;50.916;6.900;2022-08-01T12:37:57;3.75;;;2.80;;
14945;SDS011;7567;50.916;6.900;2022-08-01T12:40:32;6.38;;;3.00;;
14945;SDS011;7567;50.916;6.900;2022-08-01T12:43:06;5.72;;;2.92;;
14945;SDS011;7567;50.916;6.900;2022-08-01T12:45:38;5.00;;;2.80;;
14945;SDS011;7567;50.916;6.900;2022-08-01T12:48:09;5.30;;;3.33;;
14945;SDS011;7567;50.916;6.900;2022-08-01T12:50:37;5.53;;;3.60;;
14945;SDS011;7567;50.916;6.900;2022-08-01T12:53:05;4.40;;;3.22;;
14945;SDS011;7567;50.916;6.900;2022-08-01T12:55:41;4.60;;;3.25;;
14945;SDS011;7567;50.916;6.900;2022-08-01T12:58:17;5.25;;;3.35;;
14945;SDS011;7567;50.916;6.900;2022-08-01T13:00:45;4.50;;;3.10;;
14945;SDS011;7567;50.916;6.900;2022-08-01T13:03:16;5.32;;;3.20;;
14945;SDS011;7567;50.916;6.900;2022-08-01T13:05:45;4.40;;;3.00;;
14945;SDS011;7567;50.916;6.900;2022-08-01T13:08:33;5.60;;;2.75;;
14945;SDS011;7567;50.916;6.900;2022-08-01T13:11:03;2.90;;;2.50;;
14945;SDS011;7567;50.916;6.900;2022-08-01T13:13:40;4.55;;;2.90;;
14945;SDS011;7567;50.916;6.900;2022-08-01T13:16:16;6.75;;;3.00;;
14945;SDS011;7567;50.916;6.900;2022-08-01T13:18:50;4.55;;;2.40;;
14945;SDS011;7567;50.916;6.900;2022-08-01T13:26:38;2.95;;;2.38;;
14945;SDS011;7567;50.916;6.900;2022-08-01T13:29:12;5.28;;;2.10;;
14945;SDS011;7567;50.916;6.900;2022-08-01T13:31:40;3.15;;;1.55;;
14945;SDS011;7567;50.916;6.900;2022-08-01T13:34:06;4.07;;;2.05;;
14945;SDS011;7567;50.916;6.900;2022-08-01T13:36:33;2.65;;;2.10;;
14945;SDS011;7567;50.916;6.900;2022-08-01T13:39:00;3.15;;;2.30;;
14945;SDS011;7567;50.916;6.900;2022-08-01T13:41:46;3.85;;;1.90;;
14945;SDS011;7567;50.916;6.900;2022-08-01T13:44:12;3.03;;;1.73;;
14945;SDS011;7567;50.916;6.900;2022-08-01T13:46:39;3.15;;;1.70;;
14945;SDS011;7567;50.916;6.900;2022-08-01T13:49:06;2.60;;;1.60;;
14945;SDS011;7567;50.916;6.900;2022-08-01T13:51:34;3.70;;;1.70;;
14945;SDS011;7567;50.916;6.900;2022-08-01T13:54:01;3.55;;;1.85;;
14945;SDS011;7567;50.916;6.900;2022-08-01T13:56:27;2.83;;;1.58;;
14945;SDS011;7567;50.916;6.900;2022-08-01T13:58:54;3.55;;;1.70;;
14945;SDS011;7567;50.916;6.900;2022-08-01T14:01:21;2.58;;;1.50;;
14945;SDS011;7567;50.916;6.900;2022-08-01T14:03:47;3.38;;;2.03;;
14945;SDS011;7567;50.916;6.900;2022-08-01T14:06:13;3.97;;;1.90;;
14945;SDS011;7567;50.916;6.900;2022-08-01T14:08:41;5.20;;;2.15;;
14945;SDS011;7567;50.916;6.900;2022-08-01T14:11:08;1.77;;;1.38;;
14945;SDS011;7567;50.916;6.900;2022-08-01T14:13:34;4.72;;;1.70;;
14945;SDS011;7567;50.916;6.900;2022-08-01T14:16:03;3.78;;;1.58;;
14945;SDS011;7567;50.916;6.900;2022-08-01T14:18:30;3.92;;;1.50;;
14945;SDS011;7567;50.916;6.900;2022-08-01T14:20:56;3.63;;;1.63;;
14945;SDS011;7567;50.916;6.900;2022-08-01T14:23:22;2.70;;;1.30;;
14945;SDS011;7567;50.916;6.900;2022-08-01T14:25:48;3.63;;;1.58;;
14945;SDS011;7567;50.916;6.900;2022-08-01T14:28:14;8.57;;;2.65;;
14945;SDS011;7567;50.916;6.900;2022-08-01T14:30:40;3.42;;;1.77;;
14945;SDS011;7567;50.916;6.900;2022-08-01T14:33:08;1.98;;;1.60;;
14945;SDS011;7567;50.916;6.900;2022-08-01T14:35:34;3.15;;;1.30;;
14945;SDS011;7567;50.916;6.900;2022-08-01T14:38:00;3.30;;;1.45;;
14945;SDS011;7567;50.916;6.900;2022-08-01T14:40:26;1.63;;;1.40;;
14945;SDS011;7567;50.916;6.900;2022-08-01T14:42:52;4.53;;;2.10;;
14945;SDS011;7567;50.916;6.900;2022-08-01T14:45:18;3.60;;;2.38;;
14945;SDS011;7567;50.916;6.900;2022-08-01T14:47:44;7.43;;;4.18;;
14945;SDS011;7567;50.916;6.900;2022-08-01T14:50:11;2.83;;;1.58;;
14945;SDS011;7567;50.916;6.900;2022-08-01T14:52:39;3.60;;;1.70;;
14945;SDS011;7567;50.916;6.900;2022-08-01T14:55:06;4.15;;;1.38;;
14945;SDS011;7567;50.916;6.900;2022-08-01T14:57:34;4.88;;;1.35;;
14945;SDS011;7567;50.916;6.900;2022-08-01T15:00:01;2.05;;;1.52;;
14945;SDS011;7567;50.916;6.900;2022-08-01T15:02:28;1.35;;;1.20;;
14945;SDS011;7567;50.916;6.900;2022-08-01T15:04:54;1.48;;;1.35;;
14945;SDS011;7567;50.916;6.900;2022-08-01T15:07:19;2.17;;;1.77;;
14945;SDS011;7567;50.916;6.900;2022-08-01T15:09:45;2.92;;;1.30;;
14945;SDS011;7567;50.916;6.900;2022-08-01T15:12:11;4.80;;;1.90;;
14945;SDS011;7567;50.916;6.900;2022-08-01T15:14:38;2.33;;;1.60;;
14945;SDS011;7567;50.916;6.900;2022-08-01T15:17:17;4.68;;;1.48;;
14945;SDS011;7567;50.916;6.900;2022-08-01T15:19:45;4.68;;;1.55;;
14945;SDS011;7567;50.916;6.900;2022-08-01T15:22:12;3.50;;;1.35;;
14945;SDS011;7567;50.916;6.900;2022-08-01T15:24:38;1.60;;;1.50;;
14945;SDS011;7567;50.916;6.900;2022-08-01T15:27:05;1.67;;;1.23;;
14945;SDS011;7567;50.916;6.900;2022-08-01T15:29:31;2.55;;;1.50;;
14945;SDS011;7567;50.916;6.900;2022-08-01T15:31:58;1.45;;;1.35;;
14945;SDS011;7567;50.916;6.900;2022-08-01T15:34:24;2.60;;;1.60;;
14945;SDS011;7567;50.916;6.900;2022-08-01T15:36:50;1.55;;;1.40;;
14945;SDS011;7567;50.916;6.900;2022-08-01T15:39:16;2.05;;;1.48;;
14945;SDS011;7567;50.916;6.900;2022-08-01T15:41:42;5.95;;;1.50;;
14945;SDS011;7567;50.916;6.900;2022-08-01T15:44:08;1.67;;;1.58;;
14945;SDS011;7567;50.916;6.900;2022-08-01T15:46:37;3.38;;;1.70;;
14945;SDS011;7567;50.916;6.900;2022-08-01T15:49:04;4.88;;;1.70;;
14945;SDS011;7567;50.916;6.900;2022-08-01T15:51:31;2.17;;;1.52;;
14945;SDS011;7567;50.916;6.900;2022-08-01T15:53:57;2.30;;;1.35;;
14945;SDS011;7567;50.916;6.900;2022-08-01T15:56:30;2.03;;;1.50;;
14945;SDS011;7567;50.916;6.900;2022-08-01T15:58:57;1.67;;;1.30;;
14945;SDS011;7567;50.916;6.900;2022-08-01T16:01:23;3.20;;;1.45;;